Time;durP1;ratioP1;P1;durP2;ratioP2;P2;SDS_P1;SDS_P2;PMS_P1;PMS_P2;Temp;Humidity;BMP_temperature;BMP_pressure;BME280_temperature;BME280_humidity;BME280_pressure;Samples;Min_cycle;Max_cycle;Signal;HPM_P1;HPM_P2
2023/04/19 00:00:20;;;;;;;9.25;4.00;;;;;;;;;;5086164;28;20545;-77
2023/04/19 00:03:03;;;;;;;9.23;2.92;;;;;;;;;;5088032;28;20864;-76
2023/04/19 00:05:42;;;;;;;6.93;3.72;;;;;;;;;;5085264;28;20522;-74
2023/04/19 00:08:13;;;;;;;14.82;3.47;;;;;;;;;;5086473;28;20051;-74
2023/04/19 00:10:45;;;;;;;8.75;3.60;;;;;;;;;;5087296;28;20612;-74
2023/04/19 00:13:17;;;;;;;9.63;3.38;;;;;;;;;;5087930;28;20055;-74
2023/04/19 00:15:48;;;;;;;7.03;3.20;;;;;;;;;;5087285;28;20055;-74
2023/04/19 00:18:21;;;;;;;5.43;2.78;;;;;;;;;;5086889;28;20067;-74
2023/04/19 00:20:53;;;;;;;9.60;3.85;;;;;;;;;;5087315;28;20518;-73
2023/04/19 00:23:31;;;;;;;9.35;3.15;;;;;;;;;;5087503;28;20079;-75
2023/04/19 00:26:03;;;;;;;8.38;3.03;;;;;;;;;;5087365;28;20044;-77
2023/04/19 00:28:37;;;;;;;11.00;2.97;;;;;;;;;;5087674;28;20048;-78
2023/04/19 00:31:11;;;;;;;16.73;3.50;;;;;;;;;;5087734;28;20036;-76
2023/04/19 00:33:45;;;;;;;11.82;2.95;;;;;;;;;;5069334;28;20063;-74
2023/04/19 00:36:16;;;;;;;4.90;2.80;;;;;;;;;;5087064;28;20054;-77
2023/04/19 00:38:48;;;;;;;4.43;2.50;;;;;;;;;;5084649;28;20056;-78
2023/04/19 00:41:18;;;;;;;8.90;2.60;;;;;;;;;;5087548;28;20043;-76
2023/04/19 00:43:52;;;;;;;4.65;2.38;;;;;;;;;;5085318;28;20052;-75
2023/04/19 00:46:23;;;;;;;3.35;2.13;;;;;;;;;;5087914;28;20406;-76
2023/04/19 00:48:55;;;;;;;8.10;2.67;;;;;;;;;;5086247;28;21099;-78
2023/04/19 00:51:29;;;;;;;4.95;2.25;;;;;;;;;;5086776;28;20052;-79
2023/04/19 00:54:05;;;;;;;9.27;1.95;;;;;;;;;;5085048;28;20048;-77
2023/04/19 00:56:36;;;;;;;13.60;2.33;;;;;;;;;;5087257;28;20048;-78
2023/04/19 00:59:08;;;;;;;8.60;2.83;;;;;;;;;;5087004;28;20518;-76
2023/04/19 01:01:40;;;;;;;7.43;2.90;;;;;;;;;;5086480;28;20047;-77
2023/04/19 01:04:12;;;;;;;6.72;1.80;;;;;;;;;;5087257;28;20419;-78
2023/04/19 01:06:43;;;;;;;5.85;2.20;;;;;;;;;;5084703;28;20514;-75
2023/04/19 01:09:14;;;;;;;8.68;2.40;;;;;;;;;;5084481;28;20059;-78
2023/04/19 01:11:47;;;;;;;7.40;1.80;;;;;;;;;;5086692;28;20063;-77
2023/04/19 01:14:18;;;;;;;9.05;2.28;;;;;;;;;;5086507;28;20040;-77
2023/04/19 01:16:49;;;;;;;6.13;2.13;;;;;;;;;;5084165;28;20060;-75
2023/04/19 01:19:20;;;;;;;4.20;1.80;;;;;;;;;;5084684;28;20612;-77
2023/04/19 01:21:51;;;;;;;7.80;2.00;;;;;;;;;;5083006;28;20044;-74
2023/04/19 01:24:23;;;;;;;7.63;2.30;;;;;;;;;;5083674;28;20055;-73
2023/04/19 01:26:54;;;;;;;4.88;2.38;;;;;;;;;;5085400;28;20048;-77
2023/04/19 01:29:24;;;;;;;8.77;2.08;;;;;;;;;;5085327;28;20055;-75
2023/04/19 01:31:56;;;;;;;5.50;2.20;;;;;;;;;;5085740;28;20725;-75
2023/04/19 01:34:28;;;;;;;5.40;2.33;;;;;;;;;;5084715;28;20581;-74
2023/04/19 01:36:59;;;;;;;11.95;2.60;;;;;;;;;;5085763;28;20056;-77
2023/04/19 01:39:30;;;;;;;7.53;2.13;;;;;;;;;;5086143;28;20494;-71
2023/04/19 01:42:03;;;;;;;6.68;2.22;;;;;;;;;;5084022;28;20419;-78
2023/04/19 01:44:35;;;;;;;10.25;2.20;;;;;;;;;;5086086;28;20526;-79
2023/04/19 01:47:06;;;;;;;4.13;1.55;;;;;;;;;;5085979;28;20044;-79
2023/04/19 01:49:37;;;;;;;4.10;1.85;;;;;;;;;;5086153;28;20048;-72
2023/04/19 01:52:07;;;;;;;6.22;1.77;;;;;;;;;;5084361;28;20059;-78
2023/04/19 01:54:38;;;;;;;4.18;1.88;;;;;;;;;;5085981;28;20059;-75
2023/04/19 01:57:08;;;;;;;4.10;2.25;;;;;;;;;;5086115;28;20051;-75
2023/04/19 01:59:38;;;;;;;9.65;2.00;;;;;;;;;;5083061;28;20067;-73
2023/04/19 02:02:09;;;;;;;8.40;1.80;;;;;;;;;;5085716;28;20079;-74
2023/04/19 02:04:41;;;;;;;12.40;2.35;;;;;;;;;;5086149;28;20067;-74
2023/04/19 02:07:12;;;;;;;3.17;1.58;;;;;;;;;;5084235;28;20451;-76
2023/04/19 02:09:42;;;;;;;4.55;1.63;;;;;;;;;;5066984;28;20403;-77
2023/04/19 02:12:12;;;;;;;6.07;2.15;;;;;;;;;;5083446;28;20067;-72
2023/04/19 02:14:46;;;;;;;4.03;1.70;;;;;;;;;;5083636;28;20087;-75
2023/04/19 02:17:17;;;;;;;7.22;2.13;;;;;;;;;;5085765;28;20040;-78
2023/04/19 02:19:48;;;;;;;4.18;2.10;;;;;;;;;;5084250;28;20059;-78
2023/04/19 02:22:19;;;;;;;5.10;2.40;;;;;;;;;;5083696;28;20056;-75
2023/04/19 02:24:51;;;;;;;3.17;1.75;;;;;;;;;;5085828;28;20055;-74
2023/04/19 02:27:30;;;;;;;10.40;1.67;;;;;;;;;;5083315;28;20062;-74
2023/04/19 02:30:00;;;;;;;8.27;2.35;;;;;;;;;;5084264;28;20067;-76
2023/04/19 02:32:34;;;;;;;4.90;2.15;;;;;;;;;;5083674;28;20048;-75
2023/04/19 02:35:07;;;;;;;7.20;2.58;;;;;;;;;;5083905;28;20418;-75
2023/04/19 02:37:38;;;;;;;6.72;2.30;;;;;;;;;;5083460;28;20503;-78
2023/04/19 02:40:08;;;;;;;5.32;1.98;;;;;;;;;;5085132;28;20205;-73
2023/04/19 02:42:38;;;;;;;12.80;5.05;;;;;;;;;;5084087;28;20052;-74
2023/04/19 02:45:09;;;;;;;7.72;2.58;;;;;;;;;;5085055;28;20051;-75
2023/04/19 02:47:40;;;;;;;5.43;2.05;;;;;;;;;;5084915;28;20052;-73
2023/04/19 02:50:11;;;;;;;5.70;2.67;;;;;;;;;;5084218;28;20052;-76
2023/04/19 02:52:46;;;;;;;8.80;2.65;;;;;;;;;;5083391;28;20079;-76
2023/04/19 02:55:17;;;;;;;5.45;2.50;;;;;;;;;;5082750;28;20067;-75
2023/04/19 02:57:54;;;;;;;4.55;2.17;;;;;;;;;;5083788;28;20052;-76
2023/04/19 03:00:25;;;;;;;8.00;2.83;;;;;;;;;;5083137;28;20052;-75
2023/04/19 03:03:04;;;;;;;7.93;2.85;;;;;;;;;;5082858;28;20055;-76
2023/04/19 03:05:36;;;;;;;7.45;2.65;;;;;;;;;;5082662;28;20051;-77
2023/04/19 03:08:06;;;;;;;5.57;2.58;;;;;;;;;;5084993;28;20052;-73
2023/04/19 03:10:36;;;;;;;9.23;2.80;;;;;;;;;;5082660;28;20060;-76
2023/04/19 03:13:06;;;;;;;5.78;2.65;;;;;;;;;;5086901;28;20052;-76
2023/04/19 03:15:36;;;;;;;7.75;3.30;;;;;;;;;;5087425;28;20044;-74
2023/04/19 03:18:07;;;;;;;6.70;2.72;;;;;;;;;;5086984;28;20051;-74
2023/04/19 03:20:39;;;;;;;8.23;3.13;;;;;;;;;;5086859;28;20078;-74
2023/04/19 03:23:09;;;;;;;6.28;2.63;;;;;;;;;;5086363;28;20541;-76
2023/04/19 03:25:41;;;;;;;9.05;2.70;;;;;;;;;;5086328;28;20130;-73
2023/04/19 03:28:36;;;;;;;5.13;2.40;;;;;;;;;;5081064;28;20511;-77
2023/04/19 03:31:17;;;;;;;6.00;2.72;;;;;;;;;;5087304;28;20052;-74
2023/04/19 03:33:50;;;;;;;4.18;2.45;;;;;;;;;;5086974;28;20177;-75
2023/04/19 03:36:26;;;;;;;5.50;2.65;;;;;;;;;;5071110;28;20134;-73
2023/04/19 03:38:57;;;;;;;5.68;2.05;;;;;;;;;;5085846;28;20055;-75
2023/04/19 03:41:28;;;;;;;5.15;2.60;;;;;;;;;;5086439;28;20052;-76
2023/04/19 03:44:16;;;;;;;5.95;2.50;;;;;;;;;;5088826;28;20048;-74
2023/04/19 03:46:47;;;;;;;5.15;2.50;;;;;;;;;;5086781;28;20079;-74
2023/04/19 03:49:23;;;;;;;8.95;2.13;;;;;;;;;;5086600;28;20059;-77
2023/04/19 03:52:04;;;;;;;5.38;2.30;;;;;;;;;;5086406;28;20051;-72
2023/04/19 03:54:35;;;;;;;6.65;2.45;;;;;;;;;;5086193;28;20059;-73
2023/04/19 03:57:14;;;;;;;5.03;1.85;;;;;;;;;;5086128;28;20052;-75
2023/04/19 03:59:46;;;;;;;10.90;2.40;;;;;;;;;;5086465;28;20518;-78
2023/04/19 04:02:16;;;;;;;6.03;2.00;;;;;;;;;;5088048;28;20059;-76
2023/04/19 04:04:53;;;;;;;4.57;2.28;;;;;;;;;;5086863;28;20048;-75
2023/04/19 04:07:25;;;;;;;3.60;1.77;;;;;;;;;;5085947;28;20048;-76
2023/04/19 04:09:56;;;;;;;5.45;2.10;;;;;;;;;;5085891;28;20130;-75
2023/04/19 04:12:27;;;;;;;5.68;1.83;;;;;;;;;;5085450;28;20515;-77
2023/04/19 04:14:58;;;;;;;4.90;2.10;;;;;;;;;;5086008;28;20052;-75
2023/04/19 04:17:29;;;;;;;5.78;1.60;;;;;;;;;;5087042;28;20549;-75
2023/04/19 04:20:00;;;;;;;14.43;2.10;;;;;;;;;;5086122;28;20911;-74
2023/04/19 04:22:33;;;;;;;4.03;1.40;;;;;;;;;;5086629;28;20512;-74
2023/04/19 04:25:03;;;;;;;4.32;1.50;;;;;;;;;;5086053;28;20055;-75
2023/04/19 04:27:38;;;;;;;3.58;1.27;;;;;;;;;;5085353;28;20078;-79
2023/04/19 04:30:13;;;;;;;4.97;1.73;;;;;;;;;;5085246;28;20111;-76
2023/04/19 04:32:45;;;;;;;4.95;1.30;;;;;;;;;;5085355;28;20051;-75
2023/04/19 04:35:16;;;;;;;5.95;1.35;;;;;;;;;;5085666;28;20045;-76
2023/04/19 04:37:53;;;;;;;3.90;2.20;;;;;;;;;;5085696;28;20048;-76
2023/04/19 04:40:24;;;;;;;2.42;1.50;;;;;;;;;;5085236;28;20063;-74
2023/04/19 04:42:55;;;;;;;2.40;1.25;;;;;;;;;;5085391;28;20052;-76
2023/04/19 04:45:25;;;;;;;4.00;1.48;;;;;;;;;;5085348;28;20774;-75
2023/04/19 04:47:56;;;;;;;2.17;1.08;;;;;;;;;;5085353;28;20510;-76
2023/04/19 04:50:27;;;;;;;5.03;1.33;;;;;;;;;;5085553;28;20048;-78
2023/04/19 04:52:59;;;;;;;4.07;1.30;;;;;;;;;;5085515;28;20059;-78
2023/04/19 04:55:32;;;;;;;4.80;1.20;;;;;;;;;;5085392;28;20531;-74
2023/04/19 04:58:04;;;;;;;2.47;1.05;;;;;;;;;;5084925;28;20537;-77
2023/04/19 05:00:58;;;;;;;5.32;1.58;;;;;;;;;;5079323;28;20060;-77
2023/04/19 05:03:30;;;;;;;2.80;1.48;;;;;;;;;;5084890;28;20055;-74
2023/04/19 05:06:03;;;;;;;2.90;1.20;;;;;;;;;;5084763;28;20055;-74
2023/04/19 05:08:34;;;;;;;3.10;1.10;;;;;;;;;;5087182;28;20048;-76
2023/04/19 05:11:24;;;;;;;1.17;0.90;;;;;;;;;;5084834;28;20119;-76
2023/04/19 05:13:55;;;;;;;3.30;1.13;;;;;;;;;;5084523;28;20078;-76
2023/04/19 05:16:26;;;;;;;2.35;0.90;;;;;;;;;;5086809;28;20048;-77
2023/04/19 05:18:57;;;;;;;2.40;1.15;;;;;;;;;;5085196;28;20090;-73
2023/04/19 05:21:32;;;;;;;2.25;1.10;;;;;;;;;;5084689;28;20059;-76
2023/04/19 05:24:06;;;;;;;4.00;0.90;;;;;;;;;;5084734;28;20126;-73
2023/04/19 05:26:37;;;;;;;1.75;1.00;;;;;;;;;;5085483;28;20048;-76
2023/04/19 05:29:08;;;;;;;3.00;1.00;;;;;;;;;;5084865;28;20078;-76
2023/04/19 05:31:47;;;;;;;0.60;0.60;;;;;;;;;;5084576;28;20055;-77
2023/04/19 05:34:38;;;;;;;1.38;0.75;;;;;;;;;;5085082;28;20393;-76
2023/04/19 05:37:12;;;;;;;3.97;0.68;;;;;;;;;;5085217;28;20055;-75
2023/04/19 05:39:43;;;;;;;1.63;0.70;;;;;;;;;;5084882;28;20059;-74
2023/04/19 05:42:13;;;;;;;2.33;0.55;;;;;;;;;;5086469;28;20071;-77
2023/04/19 05:44:44;;;;;;;4.53;0.80;;;;;;;;;;5084027;28;20056;-78
2023/04/19 05:47:16;;;;;;;3.42;0.70;;;;;;;;;;5086050;28;20044;-74
2023/04/19 05:50:06;;;;;;;2.47;0.68;;;;;;;;;;5086063;28;20418;-77
2023/04/19 05:52:42;;;;;;;1.52;0.70;;;;;;;;;;5084047;28;20060;-72
2023/04/19 05:55:12;;;;;;;5.25;0.95;;;;;;;;;;5083855;28;20396;-77
2023/04/19 05:57:45;;;;;;;1.23;0.75;;;;;;;;;;5084690;28;20514;-76
2023/04/19 06:00:17;;;;;;;3.58;0.52;;;;;;;;;;5083639;28;20533;-74
2023/04/19 06:02:57;;;;;;;1.10;0.52;;;;;;;;;;5083445;28;20434;-75
2023/04/19 06:05:29;;;;;;;0.63;0.63;;;;;;;;;;5084229;28;20063;-76
2023/04/19 06:07:59;;;;;;;2.17;0.85;;;;;;;;;;5085408;28;20048;-73
2023/04/19 06:10:31;;;;;;;9.32;0.95;;;;;;;;;;5086009;28;20043;-73
2023/04/19 06:13:22;;;;;;;2.00;0.50;;;;;;;;;;5085817;28;20048;-73
2023/04/19 06:15:53;;;;;;;1.48;0.80;;;;;;;;;;5084153;28;20062;-77
2023/04/19 06:18:23;;;;;;;1.33;0.90;;;;;;;;;;5086175;28;20044;-76
2023/04/19 06:20:54;;;;;;;2.42;0.85;;;;;;;;;;5084998;28;20043;-73
2023/04/19 06:23:25;;;;;;;1.25;0.50;;;;;;;;;;5085513;28;20051;-76
2023/04/19 06:25:56;;;;;;;1.70;0.60;;;;;;;;;;5085577;28;20052;-73
2023/04/19 06:28:26;;;;;;;2.53;0.73;;;;;;;;;;5084370;28;20055;-73
2023/04/19 06:30:56;;;;;;;3.08;0.65;;;;;;;;;;5085515;28;20044;-76
2023/04/19 06:33:27;;;;;;;2.20;0.60;;;;;;;;;;5083717;28;20055;-75
2023/04/19 06:35:59;;;;;;;2.00;0.90;;;;;;;;;;5085216;28;20051;-74
2023/04/19 06:38:29;;;;;;;1.50;0.70;;;;;;;;;;5084680;28;20040;-74
2023/04/19 06:40:59;;;;;;;3.78;0.70;;;;;;;;;;5085304;28;20075;-75
2023/04/19 06:43:30;;;;;;;3.45;0.65;;;;;;;;;;5085786;28;20048;-76
2023/04/19 06:46:00;;;;;;;1.30;0.63;;;;;;;;;;5085216;28;20051;-73
2023/04/19 06:48:33;;;;;;;0.95;0.70;;;;;;;;;;5085293;28;20874;-74
2023/04/19 06:51:04;;;;;;;7.90;0.90;;;;;;;;;;5085203;28;20052;-75
2023/04/19 06:53:35;;;;;;;6.95;0.90;;;;;;;;;;5083976;28;20055;-72
2023/04/19 06:56:06;;;;;;;1.92;0.85;;;;;;;;;;5084892;28;20430;-74
2023/04/19 06:58:38;;;;;;;5.35;0.90;;;;;;;;;;5084713;28;20040;-74
2023/04/19 07:01:07;;;;;;;2.05;0.80;;;;;;;;;;5084551;28;20518;-73
2023/04/19 07:03:38;;;;;;;4.38;0.70;;;;;;;;;;5083258;28;20435;-74
2023/04/19 07:06:09;;;;;;;3.47;0.90;;;;;;;;;;5085048;28;20036;-78
2023/04/19 07:08:40;;;;;;;3.70;1.20;;;;;;;;;;5085463;28;20047;-76
2023/04/19 07:11:18;;;;;;;6.00;0.60;;;;;;;;;;5084548;28;20063;-77
2023/04/19 07:13:50;;;;;;;0.60;0.60;;;;;;;;;;5084572;28;20056;-77
2023/04/19 07:16:20;;;;;;;;;;;;;;;;;;5085356;28;20040;-74
2023/04/19 07:18:51;;;;;;;1.00;0.70;;;;;;;;;;5085134;28;19931;-73
2023/04/19 07:21:25;;;;;;;5.47;1.20;;;;;;;;;;5084829;28;20052;-75
2023/04/19 07:23:55;;;;;;;3.65;0.80;;;;;;;;;;5085038;28;20044;-76
2023/04/19 07:26:25;;;;;;;;;;;;;;;;;;5085682;28;20044;-76
2023/04/19 07:28:55;;;;;;;2.03;0.80;;;;;;;;;;5084920;28;19930;-74
2023/04/19 07:31:27;;;;;;;2.10;0.80;;;;;;;;;;5085045;28;20055;-73
2023/04/19 07:33:58;;;;;;;6.10;0.90;;;;;;;;;;5085077;28;20048;-74
2023/04/19 07:36:27;;;;;;;3.83;1.38;;;;;;;;;;5085389;28;20051;-73
2023/04/19 07:38:58;;;;;;;4.32;1.45;;;;;;;;;;5085249;28;20059;-74
2023/04/19 07:41:27;;;;;;;;;;;;;;;;;;5085312;28;20048;-76
2023/04/19 07:43:58;;;;;;;2.80;1.30;;;;;;;;;;5084886;28;19924;-75
2023/04/19 07:46:29;;;;;;;0.98;0.75;;;;;;;;;;5085738;28;20052;-75
2023/04/19 07:48:59;;;;;;;1.92;1.00;;;;;;;;;;5085066;28;20507;-74
2023/04/19 07:51:28;;;;;;;;;;;;;;;;;;5085244;28;20442;-74
2023/04/19 07:53:58;;;;;;;2.67;1.00;;;;;;;;;;5085048;28;19923;-76
2023/04/19 07:56:29;;;;;;;7.88;1.00;;;;;;;;;;5084567;28;20491;-76
2023/04/19 07:59:00;;;;;;;4.40;0.75;;;;;;;;;;5087589;28;20044;-75
2023/04/19 08:01:37;;;;;;;1.90;1.02;;;;;;;;;;5087830;28;20059;-74
2023/04/19 08:04:06;;;;;;;1.70;0.82;;;;;;;;;;5087973;28;20525;-74
2023/04/19 08:06:38;;;;;;;4.00;0.90;;;;;;;;;;5086779;28;20510;-73
2023/04/19 08:09:09;;;;;;;1.35;0.43;;;;;;;;;;5087182;28;20051;-75
2023/04/19 08:11:41;;;;;;;7.35;1.05;;;;;;;;;;5088149;28;20052;-76
2023/04/19 08:14:12;;;;;;;5.32;0.75;;;;;;;;;;5087105;28;20507;-73
2023/04/19 08:17:03;;;;;;;1.58;0.88;;;;;;;;;;5087587;28;20063;-73
2023/04/19 08:19:37;;;;;;;2.60;0.68;;;;;;;;;;5087977;28;20063;-75
2023/04/19 08:22:07;;;;;;;4.85;0.80;;;;;;;;;;5087962;28;20059;-74
2023/04/19 08:24:37;;;;;;;2.67;0.80;;;;;;;;;;5086679;28;20059;-74
2023/04/19 08:27:09;;;;;;;4.35;0.70;;;;;;;;;;5088116;28;20193;-74
2023/04/19 08:29:40;;;;;;;1.52;0.70;;;;;;;;;;5088074;28;20054;-76
2023/04/19 08:32:13;;;;;;;2.15;0.98;;;;;;;;;;5088288;28;20056;-75
2023/04/19 08:34:51;;;;;;;2.53;0.85;;;;;;;;;;5088072;28;20503;-76
2023/04/19 08:37:22;;;;;;;10.85;0.85;;;;;;;;;;5086511;28;20499;-76
2023/04/19 08:39:52;;;;;;;;;;;;;;;;;;5086351;28;20059;-73
2023/04/19 08:42:23;;;;;;;4.05;0.73;;;;;;;;;;5087922;28;19927;-77
2023/04/19 08:45:05;;;;;;;2.47;0.70;;;;;;;;;;5088043;28;20051;-74
2023/04/19 08:47:39;;;;;;;2.00;1.00;;;;;;;;;;5087370;28;20047;-75
2023/04/19 08:50:27;;;;;;;3.30;1.05;;;;;;;;;;5087008;28;20503;-74
2023/04/19 08:53:02;;;;;;;1.58;0.82;;;;;;;;;;5085626;28;20064;-75
2023/04/19 08:55:57;;;;;;;1.42;0.70;;;;;;;;;;5087239;28;20032;-72
2023/04/19 08:58:32;;;;;;;1.63;0.60;;;;;;;;;;5087212;28;20059;-76
2023/04/19 09:01:23;;;;;;;1.10;0.50;;;;;;;;;;5088310;28;20072;-73
2023/04/19 09:04:06;;;;;;;2.92;0.60;;;;;;;;;;5086729;28;20040;-75
2023/04/19 09:06:40;;;;;;;2.55;0.95;;;;;;;;;;5087095;28;20055;-74
2023/04/19 09:09:15;;;;;;;3.05;0.90;;;;;;;;;;5085213;28;20047;-78
2023/04/19 09:11:49;;;;;;;3.28;0.70;;;;;;;;;;5086850;28;20063;-73
2023/04/19 09:14:22;;;;;;;1.92;0.88;;;;;;;;;;5086910;28;20044;-76
2023/04/19 09:16:53;;;;;;;1.60;1.00;;;;;;;;;;5086674;28;20648;-75
2023/04/19 09:19:22;;;;;;;1.08;0.65;;;;;;;;;;5086614;28;20055;-74
2023/04/19 09:21:54;;;;;;;3.30;0.90;;;;;;;;;;5086361;28;20052;-72
2023/04/19 09:24:38;;;;;;;1.52;0.82;;;;;;;;;;5086209;28;20494;-76
2023/04/19 09:27:12;;;;;;;4.35;1.10;;;;;;;;;;5086625;28;20530;-75
2023/04/19 09:29:53;;;;;;;2.03;0.90;;;;;;;;;;5087217;28;20055;-74
2023/04/19 09:32:25;;;;;;;6.90;1.15;;;;;;;;;;5086707;28;20502;-75
2023/04/19 09:35:00;;;;;;;1.35;0.80;;;;;;;;;;5086945;28;20040;-74
2023/04/19 09:37:32;;;;;;;2.10;0.57;;;;;;;;;;5086899;28;20069;-76
2023/04/19 09:40:26;;;;;;;2.67;0.90;;;;;;;;;;5084425;28;20059;-79
2023/04/19 09:42:57;;;;;;;2.30;0.80;;;;;;;;;;5086175;28;20052;-76
2023/04/19 09:45:46;;;;;;;1.65;0.93;;;;;;;;;;5086368;28;20058;-74
2023/04/19 09:48:16;;;;;;;2.30;1.15;;;;;;;;;;5085813;28;20059;-73
2023/04/19 09:50:53;;;;;;;2.05;0.73;;;;;;;;;;5086153;28;20057;-77
2023/04/19 09:53:34;;;;;;;4.65;0.90;;;;;;;;;;5085850;28;20399;-76
2023/04/19 09:56:06;;;;;;;3.95;0.88;;;;;;;;;;5086129;28;20044;-75
2023/04/19 09:58:38;;;;;;;4.05;1.00;;;;;;;;;;5084560;28;20047;-78
2023/04/19 10:01:25;;;;;;;5.53;1.00;;;;;;;;;;5084539;28;20052;-75
2023/04/19 10:03:56;;;;;;;2.45;1.02;;;;;;;;;;5086212;28;20052;-78
2023/04/19 10:06:43;;;;;;;2.97;0.82;;;;;;;;;;5086443;28;20040;-75
2023/04/19 10:09:35;;;;;;;1.63;0.85;;;;;;;;;;5085674;28;20048;-79
2023/04/19 10:12:23;;;;;;;3.45;0.90;;;;;;;;;;5085962;28;20059;-76
2023/04/19 10:15:14;;;;;;;2.42;1.10;;;;;;;;;;5084243;28;20074;-77
2023/04/19 10:17:44;;;;;;;7.35;1.50;;;;;;;;;;5085426;28;20059;-77
2023/04/19 10:20:48;;;;;;;3.60;0.80;;;;;;;;;;5085758;28;20039;-77
2023/04/19 10:23:22;;;;;;;3.00;0.98;;;;;;;;;;5085784;28;20052;-77
2023/04/19 10:25:58;;;;;;;4.30;0.80;;;;;;;;;;5085009;28;20055;-77
2023/04/19 10:28:30;;;;;;;3.08;0.73;;;;;;;;;;5085282;28;20659;-77
2023/04/19 10:31:02;;;;;;;4.32;0.98;;;;;;;;;;5083904;28;20055;-78
2023/04/19 10:33:37;;;;;;;5.15;1.13;;;;;;;;;;5085600;28;20526;-75
2023/04/19 10:36:14;;;;;;;5.13;0.82;;;;;;;;;;5085407;28;20054;-74
2023/04/19 10:38:51;;;;;;;0.88;0.68;;;;;;;;;;5085363;28;20509;-76
2023/04/19 10:41:22;;;;;;;2.10;0.73;;;;;;;;;;5084053;28;20055;-76
2023/04/19 10:43:56;;;;;;;5.82;1.08;;;;;;;;;;5085322;28;20039;-76
2023/04/19 10:46:27;;;;;;;2.75;1.08;;;;;;;;;;5085219;28;20055;-77
2023/04/19 10:49:03;;;;;;;7.45;0.70;;;;;;;;;;5085254;28;20048;-75
2023/04/19 10:51:35;;;;;;;3.67;1.13;;;;;;;;;;5067434;28;20051;-74
2023/04/19 10:54:08;;;;;;;5.43;1.00;;;;;;;;;;5084197;28;20048;-77
2023/04/19 10:56:40;;;;;;;8.35;3.42;;;;;;;;;;5085450;28;20040;-72
2023/04/19 10:59:20;;;;;;;3.72;1.20;;;;;;;;;;5085552;28;20048;-74
2023/04/19 11:01:53;;;;;;;7.68;1.42;;;;;;;;;;5084668;28;20044;-73
2023/04/19 11:04:50;;;;;;;10.57;1.27;;;;;;;;;;5084859;28;20059;-75
2023/04/19 11:07:20;;;;;;;4.32;1.52;;;;;;;;;;5085350;28;20055;-73
2023/04/19 11:09:51;;;;;;;1.48;1.30;;;;;;;;;;5085014;28;20044;-78
2023/04/19 11:12:22;;;;;;;1.60;0.75;;;;;;;;;;5085244;28;20051;-76
2023/04/19 11:14:56;;;;;;;2.70;0.90;;;;;;;;;;5085327;28;20043;-73
2023/04/19 11:17:30;;;;;;;1.75;0.73;;;;;;;;;;5083238;28;20059;-76
2023/04/19 11:20:05;;;;;;;3.42;1.00;;;;;;;;;;5085045;28;20066;-76
2023/04/19 11:22:42;;;;;;;4.10;0.93;;;;;;;;;;5085290;28;20052;-74
2023/04/19 11:25:20;;;;;;;8.80;1.33;;;;;;;;;;5085148;28;20051;-73
2023/04/19 11:27:52;;;;;;;1.75;0.80;;;;;;;;;;5085555;28;20051;-75
2023/04/19 11:30:29;;;;;;;3.05;0.90;;;;;;;;;;5085530;28;20036;-75
2023/04/19 11:33:00;;;;;;;1.40;0.80;;;;;;;;;;5086668;28;20063;-75
2023/04/19 11:35:31;;;;;;;2.08;0.70;;;;;;;;;;5088835;28;20075;-74
2023/04/19 11:38:01;;;;;;;4.88;1.23;;;;;;;;;;5088987;28;21187;-79
2023/04/19 11:40:33;;;;;;;2.05;0.90;;;;;;;;;;5089133;28;20491;-77
2023/04/19 11:43:04;;;;;;;2.58;1.00;;;;;;;;;;5087782;28;20059;-77
2023/04/19 11:45:38;;;;;;;4.53;1.33;;;;;;;;;;5088951;28;20058;-77
2023/04/19 11:48:15;;;;;;;3.42;1.00;;;;;;;;;;5088843;28;20376;-77
2023/04/19 11:50:48;;;;;;;4.68;1.92;;;;;;;;;;5088344;28;20818;-75
2023/04/19 11:53:23;;;;;;;5.50;1.65;;;;;;;;;;5087127;28;20051;-77
2023/04/19 11:56:04;;;;;;;4.78;1.60;;;;;;;;;;5088143;28;20394;-76
2023/04/19 11:58:42;;;;;;;;;;;;;;;;;;5088910;28;20044;-77
2023/04/19 12:01:21;;;;;;;8.30;1.92;;;;;;;;;;5088198;28;20295;-73
2023/04/19 12:03:55;;;;;;;3.17;1.50;;;;;;;;;;5088528;28;20055;-77
2023/04/19 12:06:30;;;;;;;6.15;1.48;;;;;;;;;;5086494;28;20032;-75
2023/04/19 12:09:08;;;;;;;4.13;1.30;;;;;;;;;;5088447;28;20055;-74
2023/04/19 12:11:49;;;;;;;6.43;2.03;;;;;;;;;;5088111;28;20052;-74
2023/04/19 12:14:21;;;;;;;1.42;0.55;;;;;;;;;;5088431;28;20062;-74
2023/04/19 12:17:07;;;;;;;4.95;1.05;;;;;;;;;;5087933;28;20051;-75
2023/04/19 12:19:43;;;;;;;1.35;0.80;;;;;;;;;;5088209;28;20051;-74
2023/04/19 12:22:23;;;;;;;3.97;0.82;;;;;;;;;;5086202;28;20059;-75
2023/04/19 12:24:54;;;;;;;5.97;0.90;;;;;;;;;;5087529;28;20056;-77
2023/04/19 12:27:25;;;;;;;1.25;0.70;;;;;;;;;;5088091;28;20059;-78
2023/04/19 12:29:55;;;;;;;3.58;1.00;;;;;;;;;;5086355;28;20056;-73
2023/04/19 12:32:25;;;;;;;3.33;0.70;;;;;;;;;;5087870;28;20044;-74
2023/04/19 12:34:56;;;;;;;6.15;0.75;;;;;;;;;;5087951;28;20427;-80
2023/04/19 12:37:26;;;;;;;4.97;0.70;;;;;;;;;;5087652;28;20047;-76
2023/04/19 12:39:56;;;;;;;4.55;0.65;;;;;;;;;;5087054;28;20368;-78
2023/04/19 12:42:26;;;;;;;7.68;0.50;;;;;;;;;;5088174;28;20159;-73
2023/04/19 12:44:58;;;;;;;7.13;1.05;;;;;;;;;;5086853;28;20047;-74
2023/04/19 12:47:29;;;;;;;1.05;0.32;;;;;;;;;;5086295;28;20498;-74
2023/04/19 12:50:00;;;;;;;5.20;2.47;;;;;;;;;;5087431;28;20048;-75
2023/04/19 12:52:31;;;;;;;1.13;0.50;;;;;;;;;;5087273;28;20099;-75
2023/04/19 12:55:01;;;;;;;0.65;0.32;;;;;;;;;;5087644;28;20055;-78
2023/04/19 12:57:32;;;;;;;6.85;0.90;;;;;;;;;;5087464;28;20055;-74
2023/04/19 13:00:06;;;;;;;2.05;0.70;;;;;;;;;;5087166;28;20047;-76
2023/04/19 13:02:36;;;;;;;8.40;0.95;;;;;;;;;;5087494;28;20775;-76
2023/04/19 13:05:07;;;;;;;1.67;0.60;;;;;;;;;;5087282;28;20418;-75
2023/04/19 13:07:37;;;;;;;2.20;0.60;;;;;;;;;;5086913;28;20383;-74
2023/04/19 13:10:08;;;;;;;4.82;0.75;;;;;;;;;;5087411;28;20055;-76
2023/04/19 13:12:39;;;;;;;6.55;0.80;;;;;;;;;;5085128;28;20063;-74
2023/04/19 13:15:09;;;;;;;0.77;0.50;;;;;;;;;;5086926;28;20040;-74
2023/04/19 13:17:40;;;;;;;3.83;0.75;;;;;;;;;;5087346;28;20048;-73
2023/04/19 13:20:10;;;;;;;4.32;1.00;;;;;;;;;;5087095;28;20036;-76
2023/04/19 13:22:41;;;;;;;2.13;1.02;;;;;;;;;;5087249;28;20473;-75
2023/04/19 13:25:11;;;;;;;4.40;1.00;;;;;;;;;;5084901;28;20519;-73
2023/04/19 13:27:41;;;;;;;2.88;0.55;;;;;;;;;;5086843;28;20810;-76
2023/04/19 13:30:11;;;;;;;2.55;0.80;;;;;;;;;;5086815;28;20422;-74
2023/04/19 13:32:44;;;;;;;6.50;0.60;;;;;;;;;;5086810;28;20491;-77
2023/04/19 13:35:16;;;;;;;2.92;0.45;;;;;;;;;;5086779;28;20044;-76
2023/04/19 13:37:47;;;;;;;2.30;0.50;;;;;;;;;;5087113;28;20050;-74
2023/04/19 13:40:26;;;;;;;1.95;0.60;;;;;;;;;;5086056;28;20052;-77
2023/04/19 13:42:58;;;;;;;7.43;1.33;;;;;;;;;;5084901;28;20063;-78
2023/04/19 13:45:28;;;;;;;1.05;0.55;;;;;;;;;;5086103;28;20066;-75
2023/04/19 13:47:59;;;;;;;5.32;0.52;;;;;;;;;;5085191;28;20043;-77
2023/04/19 13:50:29;;;;;;;2.22;0.65;;;;;;;;;;5085536;28;20048;-80
2023/04/19 13:53:00;;;;;;;2.30;0.30;;;;;;;;;;5086227;28;20040;-77
2023/04/19 13:55:30;;;;;;;3.55;1.10;;;;;;;;;;5067545;28;20048;-76
2023/04/19 13:58:08;;;;;;;5.32;0.75;;;;;;;;;;5086592;28;20056;-77
2023/04/19 14:00:39;;;;;;;2.28;0.40;;;;;;;;;;5085860;28;20043;-74
2023/04/19 14:03:10;;;;;;;6.35;0.98;;;;;;;;;;5085853;28;20047;-76
2023/04/19 14:05:42;;;;;;;3.40;0.50;;;;;;;;;;5086044;28;20408;-77
2023/04/19 14:08:13;;;;;;;4.88;0.55;;;;;;;;;;5086242;28;20054;-76
2023/04/19 14:10:45;;;;;;;1.30;0.65;;;;;;;;;;5085141;28;20059;-76
2023/04/19 14:13:17;;;;;;;3.38;0.50;;;;;;;;;;5085783;28;21213;-73
2023/04/19 14:15:49;;;;;;;4.20;0.55;;;;;;;;;;5085914;28;20048;-74
2023/04/19 14:18:19;;;;;;;1.23;0.45;;;;;;;;;;5084295;28;20063;-77
2023/04/19 14:20:49;;;;;;;2.75;0.60;;;;;;;;;;5085785;28;20040;-78
2023/04/19 14:23:19;;;;;;;7.55;0.50;;;;;;;;;;5084114;28;20052;-77
2023/04/19 14:25:49;;;;;;;3.67;0.63;;;;;;;;;;5085480;28;20047;-76
2023/04/19 14:28:20;;;;;;;10.40;0.70;;;;;;;;;;5085384;28;20051;-74
2023/04/19 14:30:49;;;;;;;3.70;0.73;;;;;;;;;;5085377;28;20055;-75
2023/04/19 14:33:21;;;;;;;3.33;0.30;;;;;;;;;;5085228;28;20052;-72
2023/04/19 14:35:52;;;;;;;4.45;0.85;;;;;;;;;;5085471;28;20506;-77
2023/04/19 14:38:24;;;;;;;3.42;0.57;;;;;;;;;;5085302;28;20056;-74
2023/04/19 14:40:55;;;;;;;4.20;0.50;;;;;;;;;;5086019;28;20048;-75
2023/04/19 14:43:24;;;;;;;9.60;3.35;;;;;;;;;;5085578;28;20055;-77
2023/04/19 14:45:56;;;;;;;4.13;0.60;;;;;;;;;;5085462;28;20048;-75
2023/04/19 14:48:28;;;;;;;2.15;0.70;;;;;;;;;;5085033;28;20044;-79
2023/04/19 14:50:58;;;;;;;1.70;0.75;;;;;;;;;;5084945;28;20055;-76
2023/04/19 14:53:28;;;;;;;3.53;0.82;;;;;;;;;;5085327;28;20048;-72
2023/04/19 14:56:05;;;;;;;6.30;1.05;;;;;;;;;;5085543;28;20047;-74
2023/04/19 14:58:37;;;;;;;7.28;0.68;;;;;;;;;;5085133;28;20059;-74
2023/04/19 15:01:13;;;;;;;9.80;0.60;;;;;;;;;;5084118;28;20553;-78
2023/04/19 15:03:44;;;;;;;6.07;2.20;;;;;;;;;;5085044;28;20574;-74
2023/04/19 15:06:15;;;;;;;1.98;0.63;;;;;;;;;;5086082;28;20051;-77
2023/04/19 15:08:46;;;;;;;4.22;0.60;;;;;;;;;;5092073;28;20059;-76
2023/04/19 15:11:16;;;;;;;1.17;0.63;;;;;;;;;;5091975;28;20533;-75
2023/04/19 15:13:47;;;;;;;2.55;0.52;;;;;;;;;;5091423;28;20043;-73
2023/04/19 15:16:17;;;;;;;3.33;0.68;;;;;;;;;;5091806;28;20048;-73
2023/04/19 15:18:48;;;;;;;9.65;1.05;;;;;;;;;;5092199;28;20525;-79